sensor_id;sensor_type;location;lat;lon;timestamp;temperature;humidity
23597;DHT22;40226;50.874;4.394;2023-10-13T00:00:28;18.20;99.90
23597;DHT22;40226;50.874;4.394;2023-10-13T00:03:06;18.20;99.90
23597;DHT22;40226;50.874;4.394;2023-10-13T00:05:32;18.10;99.90
23597;DHT22;40226;50.874;4.394;2023-10-13T00:08:03;18.10;99.90
23597;DHT22;40226;50.874;4.394;2023-10-13T00:10:29;18.00;99.90
23597;DHT22;40226;50.874;4.394;2023-10-13T00:12:55;18.10;99.90
23597;DHT22;40226;50.874;4.394;2023-10-13T00:15:31;18.10;99.90
23597;DHT22;40226;50.874;4.394;2023-10-13T00:18:05;18.10;99.90
23597;DHT22;40226;50.874;4.394;2023-10-13T00:20:43;18.10;99.90
23597;DHT22;40226;50.874;4.394;2023-10-13T00:23:14;18.10;99.90
23597;DHT22;40226;50.874;4.394;2023-10-13T00:25:40;18.20;99.90
23597;DHT22;40226;50.874;4.394;2023-10-13T00:28:17;18.20;99.90
23597;DHT22;40226;50.874;4.394;2023-10-13T00:30:51;18.30;99.90
23597;DHT22;40226;50.874;4.394;2023-10-13T00:33:19;18.40;99.90
23597;DHT22;40226;50.874;4.394;2023-10-13T00:35:49;18.30;99.90
23597;DHT22;40226;50.874;4.394;2023-10-13T00:38:17;18.30;99.90
23597;DHT22;40226;50.874;4.394;2023-10-13T00:40:45;18.40;99.90
23597;DHT22;40226;50.874;4.394;2023-10-13T00:43:20;18.40;99.90
23597;DHT22;40226;50.874;4.394;2023-10-13T00:45:51;18.30;99.90
23597;DHT22;40226;50.874;4.394;2023-10-13T00:48:30;18.30;99.90
23597;DHT22;40226;50.874;4.394;2023-10-13T00:51:07;18.30;99.90
23597;DHT22;40226;50.874;4.394;2023-10-13T00:53:36;18.30;99.90
23597;DHT22;40226;50.874;4.394;2023-10-13T00:56:10;18.30;99.90
23597;DHT22;40226;50.874;4.394;2023-10-13T00:58:53;18.40;99.90
23597;DHT22;40226;50.874;4.394;2023-10-13T01:01:20;18.40;99.90
23597;DHT22;40226;50.874;4.394;2023-10-13T01:03:53;18.40;99.90
23597;DHT22;40226;50.874;4.394;2023-10-13T01:06:21;18.40;99.90
23597;DHT22;40226;50.874;4.394;2023-10-13T01:09:07;18.40;99.90
23597;DHT22;40226;50.874;4.394;2023-10-13T01:11:49;18.30;99.90
23597;DHT22;40226;50.874;4.394;2023-10-13T01:14:18;18.30;99.90
23597;DHT22;40226;50.874;4.394;2023-10-13T01:16:46;18.40;99.90
23597;DHT22;40226;50.874;4.394;2023-10-13T01:19:13;18.50;99.90
23597;DHT22;40226;50.874;4.394;2023-10-13T01:21:39;18.60;99.90
23597;DHT22;40226;50.874;4.394;2023-10-13T01:24:13;18.50;99.90
23597;DHT22;40226;50.874;4.394;2023-10-13T01:26:39;18.60;99.90
23597;DHT22;40226;50.874;4.394;2023-10-13T01:29:06;18.80;99.90
23597;DHT22;40226;50.874;4.394;2023-10-13T01:31:43;18.60;99.90
23597;DHT22;40226;50.874;4.394;2023-10-13T01:34:20;18.50;99.90
23597;DHT22;40226;50.874;4.394;2023-10-13T01:36:53;18.50;99.90
23597;DHT22;40226;50.874;4.394;2023-10-13T01:39:23;18.60;99.90
23597;DHT22;40226;50.874;4.394;2023-10-13T01:41:54;18.60;99.90
23597;DHT22;40226;50.874;4.394;2023-10-13T01:44:26;18.50;99.90
23597;DHT22;40226;50.874;4.394;2023-10-13T01:46:53;18.40;99.90
23597;DHT22;40226;50.874;4.394;2023-10-13T01:49:19;18.60;99.90
23597;DHT22;40226;50.874;4.394;2023-10-13T01:51:47;18.50;99.90
23597;DHT22;40226;50.874;4.394;2023-10-13T01:54:13;18.50;99.90
23597;DHT22;40226;50.874;4.394;2023-10-13T01:56:41;18.40;99.90
23597;DHT22;40226;50.874;4.394;2023-10-13T01:59:13;18.30;99.90
23597;DHT22;40226;50.874;4.394;2023-10-13T02:01:39;18.40;99.90
23597;DHT22;40226;50.874;4.394;2023-10-13T02:04:07;18.30;99.90
23597;DHT22;40226;50.874;4.394;2023-10-13T02:06:34;18.40;99.90
23597;DHT22;40226;50.874;4.394;2023-10-13T02:09:10;18.40;99.90
23597;DHT22;40226;50.874;4.394;2023-10-13T02:11:42;18.40;99.90
23597;DHT22;40226;50.874;4.394;2023-10-13T02:14:08;18.40;99.90
23597;DHT22;40226;50.874;4.394;2023-10-13T02:16:37;18.40;99.90
23597;DHT22;40226;50.874;4.394;2023-10-13T02:19:03;18.40;99.90
23597;DHT22;40226;50.874;4.394;2023-10-13T02:21:35;18.40;99.90
23597;DHT22;40226;50.874;4.394;2023-10-13T02:24:08;18.50;99.90
23597;DHT22;40226;50.874;4.394;2023-10-13T02:26:46;18.40;99.90
23597;DHT22;40226;50.874;4.394;2023-10-13T02:29:12;18.30;99.90
23597;DHT22;40226;50.874;4.394;2023-10-13T02:31:43;18.30;99.90
23597;DHT22;40226;50.874;4.394;2023-10-13T02:34:20;18.30;99.90
23597;DHT22;40226;50.874;4.394;2023-10-13T02:36:48;18.30;99.90
23597;DHT22;40226;50.874;4.394;2023-10-13T02:39:18;18.30;99.90
23597;DHT22;40226;50.874;4.394;2023-10-13T02:41:51;18.30;99.90
23597;DHT22;40226;50.874;4.394;2023-10-13T02:44:16;18.30;99.90
23597;DHT22;40226;50.874;4.394;2023-10-13T02:47:03;18.30;99.90
23597;DHT22;40226;50.874;4.394;2023-10-13T02:49:39;18.40;99.90
23597;DHT22;40226;50.874;4.394;2023-10-13T02:52:11;18.30;99.90
23597;DHT22;40226;50.874;4.394;2023-10-13T02:54:41;18.30;99.90
23597;DHT22;40226;50.874;4.394;2023-10-13T02:57:18;18.30;99.90
23597;DHT22;40226;50.874;4.394;2023-10-13T02:59:45;18.30;99.90
23597;DHT22;40226;50.874;4.394;2023-10-13T03:02:21;18.30;99.90
23597;DHT22;40226;50.874;4.394;2023-10-13T03:04:51;18.20;99.90
23597;DHT22;40226;50.874;4.394;2023-10-13T03:07:18;18.30;99.90
23597;DHT22;40226;50.874;4.394;2023-10-13T03:09:50;18.30;99.90
23597;DHT22;40226;50.874;4.394;2023-10-13T03:12:17;18.30;99.90
23597;DHT22;40226;50.874;4.394;2023-10-13T03:14:43;18.20;99.90
23597;DHT22;40226;50.874;4.394;2023-10-13T03:17:14;18.20;99.90
23597;DHT22;40226;50.874;4.394;2023-10-13T03:19:46;18.20;99.90
23597;DHT22;40226;50.874;4.394;2023-10-13T03:22:15;18.20;99.90
23597;DHT22;40226;50.874;4.394;2023-10-13T03:24:45;18.20;99.90
23597;DHT22;40226;50.874;4.394;2023-10-13T03:27:16;18.30;99.90
23597;DHT22;40226;50.874;4.394;2023-10-13T03:29:44;18.20;99.90
23597;DHT22;40226;50.874;4.394;2023-10-13T03:32:14;18.20;99.90
23597;DHT22;40226;50.874;4.394;2023-10-13T03:34:44;18.30;99.90
23597;DHT22;40226;50.874;4.394;2023-10-13T03:37:26;18.40;99.90
23597;DHT22;40226;50.874;4.394;2023-10-13T03:40:08;18.30;99.90
23597;DHT22;40226;50.874;4.394;2023-10-13T03:42:50;18.30;99.90
23597;DHT22;40226;50.874;4.394;2023-10-13T03:45:38;18.30;99.90
23597;DHT22;40226;50.874;4.394;2023-10-13T03:48:06;18.30;99.90
23597;DHT22;40226;50.874;4.394;2023-10-13T03:50:39;18.30;99.90
23597;DHT22;40226;50.874;4.394;2023-10-13T03:53:23;18.20;99.90
23597;DHT22;40226;50.874;4.394;2023-10-13T03:55:51;18.20;99.90
23597;DHT22;40226;50.874;4.394;2023-10-13T03:58:36;18.20;99.90
23597;DHT22;40226;50.874;4.394;2023-10-13T04:01:03;18.10;99.90
23597;DHT22;40226;50.874;4.394;2023-10-13T04:03:29;18.10;99.90
23597;DHT22;40226;50.874;4.394;2023-10-13T04:06:04;18.10;99.90
23597;DHT22;40226;50.874;4.394;2023-10-13T04:08:34;18.10;99.90
23597;DHT22;40226;50.874;4.394;2023-10-13T04:11:08;18.10;99.90
23597;DHT22;40226;50.874;4.394;2023-10-13T04:13:52;18.10;99.90
23597;DHT22;40226;50.874;4.394;2023-10-13T04:16:51;18.10;99.90
23597;DHT22;40226;50.874;4.394;2023-10-13T04:19:20;18.10;99.90
23597;DHT22;40226;50.874;4.394;2023-10-13T04:21:50;18.20;99.90
23597;DHT22;40226;50.874;4.394;2023-10-13T04:24:26;18.10;99.90
23597;DHT22;40226;50.874;4.394;2023-10-13T04:27:00;18.20;99.90
23597;DHT22;40226;50.874;4.394;2023-10-13T04:29:55;18.10;99.90
23597;DHT22;40226;50.874;4.394;2023-10-13T04:32:36;18.10;99.90
23597;DHT22;40226;50.874;4.394;2023-10-13T04:35:07;18.10;99.90
23597;DHT22;40226;50.874;4.394;2023-10-13T04:37:43;18.10;99.90
23597;DHT22;40226;50.874;4.394;2023-10-13T04:40:16;18.10;99.90
23597;DHT22;40226;50.874;4.394;2023-10-13T04:42:44;18.20;99.90
23597;DHT22;40226;50.874;4.394;2023-10-13T04:45:22;18.10;99.90
23597;DHT22;40226;50.874;4.394;2023-10-13T04:48:01;18.10;99.90
23597;DHT22;40226;50.874;4.394;2023-10-13T04:50:47;18.20;99.90
23597;DHT22;40226;50.874;4.394;2023-10-13T04:53:17;18.20;99.90
23597;DHT22;40226;50.874;4.394;2023-10-13T04:55:58;18.20;99.90
23597;DHT22;40226;50.874;4.394;2023-10-13T04:58:42;18.20;99.90
23597;DHT22;40226;50.874;4.394;2023-10-13T05:01:26;18.30;99.90
23597;DHT22;40226;50.874;4.394;2023-10-13T05:03:52;18.30;99.90
23597;DHT22;40226;50.874;4.394;2023-10-13T05:06:37;18.40;99.90
23597;DHT22;40226;50.874;4.394;2023-10-13T05:09:09;18.40;99.90
23597;DHT22;40226;50.874;4.394;2023-10-13T05:11:53;18.40;99.90
23597;DHT22;40226;50.874;4.394;2023-10-13T05:14:38;18.50;99.90
23597;DHT22;40226;50.874;4.394;2023-10-13T05:17:22;18.40;99.90
23597;DHT22;40226;50.874;4.394;2023-10-13T05:20:07;18.40;99.90
23597;DHT22;40226;50.874;4.394;2023-10-13T05:22:51;18.40;99.90
23597;DHT22;40226;50.874;4.394;2023-10-13T05:25:37;18.30;99.90
23597;DHT22;40226;50.874;4.394;2023-10-13T05:28:21;18.40;99.90
23597;DHT22;40226;50.874;4.394;2023-10-13T05:31:07;18.40;99.90
23597;DHT22;40226;50.874;4.394;2023-10-13T05:33:51;18.40;99.90
23597;DHT22;40226;50.874;4.394;2023-10-13T05:36:36;18.40;99.90
23597;DHT22;40226;50.874;4.394;2023-10-13T05:39:20;18.40;99.90
23597;DHT22;40226;50.874;4.394;2023-10-13T05:42:04;18.40;99.90
23597;DHT22;40226;50.874;4.394;2023-10-13T05:44:49;18.50;99.90
23597;DHT22;40226;50.874;4.394;2023-10-13T05:47:33;18.40;99.90
23597;DHT22;40226;50.874;4.394;2023-10-13T05:50:12;18.40;99.90
23597;DHT22;40226;50.874;4.394;2023-10-13T05:52:50;18.40;99.90
23597;DHT22;40226;50.874;4.394;2023-10-13T05:55:28;18.40;99.90
23597;DHT22;40226;50.874;4.394;2023-10-13T05:58:14;18.40;99.90
23597;DHT22;40226;50.874;4.394;2023-10-13T06:00:59;18.40;99.90
23597;DHT22;40226;50.874;4.394;2023-10-13T06:03:43;18.40;99.90
23597;DHT22;40226;50.874;4.394;2023-10-13T06:06:28;18.40;99.90
23597;DHT22;40226;50.874;4.394;2023-10-13T06:09:25;18.40;99.90
23597;DHT22;40226;50.874;4.394;2023-10-13T06:12:10;18.50;99.90
23597;DHT22;40226;50.874;4.394;2023-10-13T06:14:54;18.60;99.90
23597;DHT22;40226;50.874;4.394;2023-10-13T06:17:38;18.60;99.90
23597;DHT22;40226;50.874;4.394;2023-10-13T06:20:22;18.50;99.90
23597;DHT22;40226;50.874;4.394;2023-10-13T06:23:07;18.60;99.90
23597;DHT22;40226;50.874;4.394;2023-10-13T06:25:51;18.50;99.90
23597;DHT22;40226;50.874;4.394;2023-10-13T06:28:35;18.40;99.90
23597;DHT22;40226;50.874;4.394;2023-10-13T06:31:08;18.30;99.90
23597;DHT22;40226;50.874;4.394;2023-10-13T06:33:37;18.40;99.90
23597;DHT22;40226;50.874;4.394;2023-10-13T06:36:09;18.50;99.90
23597;DHT22;40226;50.874;4.394;2023-10-13T06:38:36;18.50;99.90
23597;DHT22;40226;50.874;4.394;2023-10-13T06:41:10;18.50;99.90
23597;DHT22;40226;50.874;4.394;2023-10-13T06:43:45;18.50;99.90
23597;DHT22;40226;50.874;4.394;2023-10-13T06:46:11;18.60;99.90
23597;DHT22;40226;50.874;4.394;2023-10-13T06:48:48;18.60;99.90
23597;DHT22;40226;50.874;4.394;2023-10-13T06:51:18;18.70;99.90
23597;DHT22;40226;50.874;4.394;2023-10-13T06:53:47;18.80;99.90
23597;DHT22;40226;50.874;4.394;2023-10-13T06:56:17;18.70;99.90
23597;DHT22;40226;50.874;4.394;2023-10-13T06:58:50;18.80;99.90
23597;DHT22;40226;50.874;4.394;2023-10-13T07:01:16;18.90;99.90
23597;DHT22;40226;50.874;4.394;2023-10-13T07:03:47;18.90;99.90
23597;DHT22;40226;50.874;4.394;2023-10-13T07:06:20;18.90;99.90
23597;DHT22;40226;50.874;4.394;2023-10-13T07:08:47;18.90;99.90
23597;DHT22;40226;50.874;4.394;2023-10-13T07:11:18;18.90;99.90
23597;DHT22;40226;50.874;4.394;2023-10-13T07:14:07;18.90;99.90
23597;DHT22;40226;50.874;4.394;2023-10-13T07:17:00;18.90;99.90
23597;DHT22;40226;50.874;4.394;2023-10-13T07:19:29;19.00;99.90
23597;DHT22;40226;50.874;4.394;2023-10-13T07:21:56;19.00;99.90
23597;DHT22;40226;50.874;4.394;2023-10-13T07:24:28;19.10;99.90
23597;DHT22;40226;50.874;4.394;2023-10-13T07:26:59;19.20;99.90
23597;DHT22;40226;50.874;4.394;2023-10-13T07:29:30;19.30;99.90
23597;DHT22;40226;50.874;4.394;2023-10-13T07:31:56;19.40;99.90
23597;DHT22;40226;50.874;4.394;2023-10-13T07:34:21;19.40;99.90
23597;DHT22;40226;50.874;4.394;2023-10-13T07:36:54;19.30;99.90
23597;DHT22;40226;50.874;4.394;2023-10-13T07:39:30;19.40;99.90
23597;DHT22;40226;50.874;4.394;2023-10-13T07:42:00;19.40;99.90
23597;DHT22;40226;50.874;4.394;2023-10-13T07:44:40;19.50;99.90
23597;DHT22;40226;50.874;4.394;2023-10-13T07:47:11;19.50;99.90
23597;DHT22;40226;50.874;4.394;2023-10-13T07:49:40;19.60;99.90
23597;DHT22;40226;50.874;4.394;2023-10-13T07:52:11;19.60;99.90
23597;DHT22;40226;50.874;4.394;2023-10-13T07:54:46;19.60;99.90
23597;DHT22;40226;50.874;4.394;2023-10-13T07:57:17;19.60;99.90
23597;DHT22;40226;50.874;4.394;2023-10-13T07:59:44;19.60;99.90
23597;DHT22;40226;50.874;4.394;2023-10-13T08:02:17;19.70;99.90
23597;DHT22;40226;50.874;4.394;2023-10-13T08:05:09;19.80;99.90
23597;DHT22;40226;50.874;4.394;2023-10-13T08:07:35;19.90;99.90
23597;DHT22;40226;50.874;4.394;2023-10-13T08:10:05;20.00;99.90
23597;DHT22;40226;50.874;4.394;2023-10-13T08:12:35;20.00;99.90
23597;DHT22;40226;50.874;4.394;2023-10-13T08:15:03;20.00;99.90
23597;DHT22;40226;50.874;4.394;2023-10-13T08:17:46;20.10;99.90
23597;DHT22;40226;50.874;4.394;2023-10-13T08:20:12;20.20;99.90
23597;DHT22;40226;50.874;4.394;2023-10-13T08:22:38;20.30;99.90
23597;DHT22;40226;50.874;4.394;2023-10-13T08:25:04;20.30;99.90
23597;DHT22;40226;50.874;4.394;2023-10-13T08:27:49;20.40;99.90
23597;DHT22;40226;50.874;4.394;2023-10-13T08:30:16;20.30;99.90
23597;DHT22;40226;50.874;4.394;2023-10-13T08:32:55;20.30;99.90
23597;DHT22;40226;50.874;4.394;2023-10-13T08:35:22;20.30;99.90
23597;DHT22;40226;50.874;4.394;2023-10-13T08:37:48;20.30;99.90
23597;DHT22;40226;50.874;4.394;2023-10-13T08:40:17;20.40;99.90
23597;DHT22;40226;50.874;4.394;2023-10-13T08:43:06;20.50;99.90
23597;DHT22;40226;50.874;4.394;2023-10-13T08:45:36;20.70;99.90
23597;DHT22;40226;50.874;4.394;2023-10-13T08:48:02;20.80;99.90
23597;DHT22;40226;50.874;4.394;2023-10-13T08:50:49;20.80;99.90
23597;DHT22;40226;50.874;4.394;2023-10-13T08:56:02;20.90;99.90
23597;DHT22;40226;50.874;4.394;2023-10-13T08:58:47;20.90;99.90
23597;DHT22;40226;50.874;4.394;2023-10-13T09:01:20;20.80;99.90
23597;DHT22;40226;50.874;4.394;2023-10-13T09:04:08;20.90;99.90
23597;DHT22;40226;50.874;4.394;2023-10-13T09:06:57;20.90;99.90
23597;DHT22;40226;50.874;4.394;2023-10-13T09:09:27;20.90;99.90
23597;DHT22;40226;50.874;4.394;2023-10-13T09:11:59;20.90;99.90
23597;DHT22;40226;50.874;4.394;2023-10-13T09:14:39;20.90;99.90
23597;DHT22;40226;50.874;4.394;2023-10-13T09:17:10;20.90;99.90
23597;DHT22;40226;50.874;4.394;2023-10-13T09:20:08;21.00;99.90
23597;DHT22;40226;50.874;4.394;2023-10-13T09:22:53;21.10;99.90
23597;DHT22;40226;50.874;4.394;2023-10-13T09:25:28;21.20;99.90
23597;DHT22;40226;50.874;4.394;2023-10-13T09:27:59;21.20;99.90
23597;DHT22;40226;50.874;4.394;2023-10-13T09:30:26;21.40;99.90
23597;DHT22;40226;50.874;4.394;2023-10-13T09:33:02;21.40;99.90
23597;DHT22;40226;50.874;4.394;2023-10-13T09:35:30;21.40;99.90
23597;DHT22;40226;50.874;4.394;2023-10-13T09:38:00;21.40;99.90
23597;DHT22;40226;50.874;4.394;2023-10-13T09:40:29;21.30;99.90
23597;DHT22;40226;50.874;4.394;2023-10-13T09:42:59;21.40;99.90
23597;DHT22;40226;50.874;4.394;2023-10-13T09:45:31;21.50;99.90
23597;DHT22;40226;50.874;4.394;2023-10-13T09:48:12;21.60;99.90
23597;DHT22;40226;50.874;4.394;2023-10-13T09:50:48;21.60;99.90
23597;DHT22;40226;50.874;4.394;2023-10-13T09:53:15;21.70;99.90
23597;DHT22;40226;50.874;4.394;2023-10-13T09:56:45;21.60;99.90
23597;DHT22;40226;50.874;4.394;2023-10-13T09:59:42;21.70;99.90
23597;DHT22;40226;50.874;4.394;2023-10-13T10:02:08;21.60;99.90
23597;DHT22;40226;50.874;4.394;2023-10-13T10:04:36;21.60;99.90
23597;DHT22;40226;50.874;4.394;2023-10-13T10:07:07;21.60;99.90
23597;DHT22;40226;50.874;4.394;2023-10-13T10:09:34;21.60;99.90
23597;DHT22;40226;50.874;4.394;2023-10-13T10:17:43;22.00;99.90
23597;DHT22;40226;50.874;4.394;2023-10-13T10:20:13;22.00;99.90
23597;DHT22;40226;50.874;4.394;2023-10-13T10:22:59;22.00;99.90
23597;DHT22;40226;50.874;4.394;2023-10-13T10:25:32;22.10;99.90
23597;DHT22;40226;50.874;4.394;2023-10-13T10:28:03;22.20;99.90
23597;DHT22;40226;50.874;4.394;2023-10-13T10:30:37;22.20;99.90
23597;DHT22;40226;50.874;4.394;2023-10-13T10:33:05;22.30;99.90
23597;DHT22;40226;50.874;4.394;2023-10-13T10:35:45;22.30;99.90
23597;DHT22;40226;50.874;4.394;2023-10-13T10:38:16;22.30;99.90
23597;DHT22;40226;50.874;4.394;2023-10-13T10:41:05;22.30;99.90
23597;DHT22;40226;50.874;4.394;2023-10-13T10:46:26;22.30;99.90
23597;DHT22;40226;50.874;4.394;2023-10-13T10:48:53;22.40;99.90
23597;DHT22;40226;50.874;4.394;2023-10-13T10:51:28;22.50;99.90
23597;DHT22;40226;50.874;4.394;2023-10-13T10:53:58;22.80;99.90
23597;DHT22;40226;50.874;4.394;2023-10-13T10:56:36;23.00;99.90
23597;DHT22;40226;50.874;4.394;2023-10-13T10:59:03;23.10;99.90
23597;DHT22;40226;50.874;4.394;2023-10-13T11:01:31;23.10;99.90
23597;DHT22;40226;50.874;4.394;2023-10-13T11:04:04;23.10;99.90
23597;DHT22;40226;50.874;4.394;2023-10-13T11:06:52;23.00;99.90
23597;DHT22;40226;50.874;4.394;2023-10-13T11:09:35;22.90;99.90
23597;DHT22;40226;50.874;4.394;2023-10-13T11:12:12;23.00;99.90
23597;DHT22;40226;50.874;4.394;2023-10-13T11:14:45;23.20;99.90
23597;DHT22;40226;50.874;4.394;2023-10-13T11:17:22;23.20;99.90
23597;DHT22;40226;50.874;4.394;2023-10-13T11:20:12;23.30;99.90
23597;DHT22;40226;50.874;4.394;2023-10-13T11:22:45;23.30;99.90
23597;DHT22;40226;50.874;4.394;2023-10-13T11:25:24;23.40;99.90
23597;DHT22;40226;50.874;4.394;2023-10-13T11:27:55;23.40;99.90
23597;DHT22;40226;50.874;4.394;2023-10-13T11:30:22;23.40;99.90
23597;DHT22;40226;50.874;4.394;2023-10-13T11:33:02;23.40;99.90
23597;DHT22;40226;50.874;4.394;2023-10-13T11:35:34;23.50;99.90
23597;DHT22;40226;50.874;4.394;2023-10-13T11:40:57;23.50;99.90
23597;DHT22;40226;50.874;4.394;2023-10-13T11:43:36;23.60;99.90
23597;DHT22;40226;50.874;4.394;2023-10-13T11:46:08;23.70;99.90
23597;DHT22;40226;50.874;4.394;2023-10-13T11:48:33;23.80;99.90
23597;DHT22;40226;50.874;4.394;2023-10-13T11:51:02;23.90;99.90
23597;DHT22;40226;50.874;4.394;2023-10-13T11:53:37;24.00;99.90
23597;DHT22;40226;50.874;4.394;2023-10-13T11:56:06;24.00;99.90
23597;DHT22;40226;50.874;4.394;2023-10-13T11:58:39;23.90;99.90
23597;DHT22;40226;50.874;4.394;2023-10-13T12:01:05;24.00;99.90
23597;DHT22;40226;50.874;4.394;2023-10-13T12:03:40;23.90;99.90
23597;DHT22;40226;50.874;4.394;2023-10-13T12:06:25;23.70;99.90
23597;DHT22;40226;50.874;4.394;2023-10-13T12:09:01;23.50;99.90
23597;DHT22;40226;50.874;4.394;2023-10-13T12:11:49;23.40;99.90
23597;DHT22;40226;50.874;4.394;2023-10-13T12:14:20;23.50;99.90
23597;DHT22;40226;50.874;4.394;2023-10-13T12:16:57;23.50;99.90
23597;DHT22;40226;50.874;4.394;2023-10-13T12:19:30;23.40;99.90
23597;DHT22;40226;50.874;4.394;2023-10-13T12:21:56;23.30;99.90
23597;DHT22;40226;50.874;4.394;2023-10-13T12:24:23;23.30;99.90
23597;DHT22;40226;50.874;4.394;2023-10-13T12:27:01;23.20;99.90
23597;DHT22;40226;50.874;4.394;2023-10-13T12:29:27;23.10;99.90
23597;DHT22;40226;50.874;4.394;2023-10-13T12:31:56;23.10;99.90
23597;DHT22;40226;50.874;4.394;2023-10-13T12:53:16;22.60;99.90
23597;DHT22;40226;50.874;4.394;2023-10-13T12:55:41;22.50;99.90
23597;DHT22;40226;50.874;4.394;2023-10-13T12:58:07;22.70;99.90
23597;DHT22;40226;50.874;4.394;2023-10-13T13:00:33;22.90;99.90
23597;DHT22;40226;50.874;4.394;2023-10-13T13:02:59;22.90;99.90
23597;DHT22;40226;50.874;4.394;2023-10-13T13:05:25;23.00;99.90
23597;DHT22;40226;50.874;4.394;2023-10-13T13:07:54;23.10;99.90
23597;DHT22;40226;50.874;4.394;2023-10-13T13:10:20;23.20;99.90
23597;DHT22;40226;50.874;4.394;2023-10-13T13:13:00;23.20;99.90
23597;DHT22;40226;50.874;4.394;2023-10-13T13:15:26;23.20;99.90
23597;DHT22;40226;50.874;4.394;2023-10-13T13:17:51;23.20;99.90
23597;DHT22;40226;50.874;4.394;2023-10-13T13:20:17;23.10;99.90
23597;DHT22;40226;50.874;4.394;2023-10-13T13:22:54;23.10;99.90
23597;DHT22;40226;50.874;4.394;2023-10-13T13:25:20;23.10;99.90
23597;DHT22;40226;50.874;4.394;2023-10-13T13:27:51;23.20;99.90
23597;DHT22;40226;50.874;4.394;2023-10-13T13:30:18;23.20;99.90
23597;DHT22;40226;50.874;4.394;2023-10-13T13:32:45;23.10;99.90
23597;DHT22;40226;50.874;4.394;2023-10-13T13:35:11;23.10;99.90
23597;DHT22;40226;50.874;4.394;2023-10-13T13:37:39;23.20;99.90
23597;DHT22;40226;50.874;4.394;2023-10-13T13:40:05;23.20;99.90
23597;DHT22;40226;50.874;4.394;2023-10-13T13:42:44;23.40;99.90
23597;DHT22;40226;50.874;4.394;2023-10-13T13:45:17;23.60;99.90
23597;DHT22;40226;50.874;4.394;2023-10-13T13:47:49;23.80;99.90
23597;DHT22;40226;50.874;4.394;2023-10-13T13:50:22;23.80;99.90
23597;DHT22;40226;50.874;4.394;2023-10-13T13:52:54;24.00;99.90
23597;DHT22;40226;50.874;4.394;2023-10-13T13:55:23;24.00;99.90
23597;DHT22;40226;50.874;4.394;2023-10-13T13:57:50;24.00;99.90
23597;DHT22;40226;50.874;4.394;2023-10-13T14:00:19;23.80;99.90
23597;DHT22;40226;50.874;4.394;2023-10-13T14:03:08;23.70;99.90
23597;DHT22;40226;50.874;4.394;2023-10-13T14:05:44;23.40;99.90
23597;DHT22;40226;50.874;4.394;2023-10-13T14:08:09;23.20;99.90
23597;DHT22;40226;50.874;4.394;2023-10-13T14:10:38;23.10;99.90
23597;DHT22;40226;50.874;4.394;2023-10-13T14:13:23;23.00;99.90
23597;DHT22;40226;50.874;4.394;2023-10-13T14:16:09;23.00;99.90
23597;DHT22;40226;50.874;4.394;2023-10-13T14:18:45;23.00;99.90
23597;DHT22;40226;50.874;4.394;2023-10-13T14:21:11;23.00;99.90
23597;DHT22;40226;50.874;4.394;2023-10-13T14:23:43;23.10;99.90
23597;DHT22;40226;50.874;4.394;2023-10-13T14:26:12;23.10;99.90
23597;DHT22;40226;50.874;4.394;2023-10-13T14:28:38;23.10;99.90
23597;DHT22;40226;50.874;4.394;2023-10-13T14:31:16;23.10;99.90
23597;DHT22;40226;50.874;4.394;2023-10-13T14:33:42;23.00;99.90
23597;DHT22;40226;50.874;4.394;2023-10-13T14:36:10;23.00;99.90
23597;DHT22;40226;50.874;4.394;2023-10-13T14:38:36;22.90;99.90
23597;DHT22;40226;50.874;4.394;2023-10-13T14:41:01;22.80;99.90
23597;DHT22;40226;50.874;4.394;2023-10-13T14:43:27;22.80;99.90
23597;DHT22;40226;50.874;4.394;2023-10-13T14:45:53;22.80;99.90
23597;DHT22;40226;50.874;4.394;2023-10-13T14:48:19;22.70;99.90
23597;DHT22;40226;50.874;4.394;2023-10-13T14:50:44;22.60;99.90
23597;DHT22;40226;50.874;4.394;2023-10-13T14:53:11;22.50;99.90
23597;DHT22;40226;50.874;4.394;2023-10-13T14:55:36;22.50;99.90
23597;DHT22;40226;50.874;4.394;2023-10-13T14:58:05;22.30;99.90
23597;DHT22;40226;50.874;4.394;2023-10-13T15:00:33;22.30;99.90
23597;DHT22;40226;50.874;4.394;2023-10-13T15:03:00;22.20;99.90
23597;DHT22;40226;50.874;4.394;2023-10-13T15:05:31;22.00;99.90
23597;DHT22;40226;50.874;4.394;2023-10-13T15:07:58;22.00;99.90
23597;DHT22;40226;50.874;4.394;2023-10-13T15:10:25;22.10;99.90
23597;DHT22;40226;50.874;4.394;2023-10-13T15:12:51;22.10;99.90
23597;DHT22;40226;50.874;4.394;2023-10-13T15:15:17;22.20;99.90
23597;DHT22;40226;50.874;4.394;2023-10-13T15:17:44;22.10;99.90
23597;DHT22;40226;50.874;4.394;2023-10-13T15:20:11;22.10;99.90
23597;DHT22;40226;50.874;4.394;2023-10-13T15:22:45;22.00;99.90
23597;DHT22;40226;50.874;4.394;2023-10-13T15:25:13;22.10;99.90
23597;DHT22;40226;50.874;4.394;2023-10-13T15:28:00;22.10;99.90
23597;DHT22;40226;50.874;4.394;2023-10-13T15:30:33;21.90;99.90
23597;DHT22;40226;50.874;4.394;2023-10-13T15:33:17;21.70;99.90
23597;DHT22;40226;50.874;4.394;2023-10-13T15:35:45;21.60;99.90
23597;DHT22;40226;50.874;4.394;2023-10-13T15:38:11;21.70;99.90
23597;DHT22;40226;50.874;4.394;2023-10-13T15:40:46;21.60;99.90
23597;DHT22;40226;50.874;4.394;2023-10-13T15:43:12;21.60;99.90
23597;DHT22;40226;50.874;4.394;2023-10-13T15:45:38;21.70;99.90
23597;DHT22;40226;50.874;4.394;2023-10-13T15:48:08;21.70;99.90
23597;DHT22;40226;50.874;4.394;2023-10-13T15:50:39;21.80;99.90
23597;DHT22;40226;50.874;4.394;2023-10-13T15:53:06;21.80;99.90
23597;DHT22;40226;50.874;4.394;2023-10-13T15:55:35;21.80;99.90
23597;DHT22;40226;50.874;4.394;2023-10-13T15:58:02;21.80;99.90
23597;DHT22;40226;50.874;4.394;2023-10-13T16:00:28;21.90;99.90
23597;DHT22;40226;50.874;4.394;2023-10-13T16:02:56;21.90;99.90
23597;DHT22;40226;50.874;4.394;2023-10-13T16:05:34;21.90;99.90
23597;DHT22;40226;50.874;4.394;2023-10-13T16:08:03;21.90;99.90
23597;DHT22;40226;50.874;4.394;2023-10-13T16:10:29;21.80;99.90
23597;DHT22;40226;50.874;4.394;2023-10-13T16:12:55;21.80;99.90
23597;DHT22;40226;50.874;4.394;2023-10-13T16:15:23;21.80;99.90
23597;DHT22;40226;50.874;4.394;2023-10-13T16:17:49;21.80;99.90
23597;DHT22;40226;50.874;4.394;2023-10-13T16:20:14;21.80;99.90
23597;DHT22;40226;50.874;4.394;2023-10-13T16:22:46;21.50;99.90
23597;DHT22;40226;50.874;4.394;2023-10-13T16:25:13;21.10;99.90
23597;DHT22;40226;50.874;4.394;2023-10-13T16:27:40;20.90;99.90
23597;DHT22;40226;50.874;4.394;2023-10-13T16:30:11;20.60;99.90
23597;DHT22;40226;50.874;4.394;2023-10-13T16:32:44;20.50;99.90
23597;DHT22;40226;50.874;4.394;2023-10-13T16:35:17;20.40;99.90
23597;DHT22;40226;50.874;4.394;2023-10-13T16:37:49;20.20;99.90
23597;DHT22;40226;50.874;4.394;2023-10-13T16:40:18;20.00;99.90